Quonset State Airport North Kingstown US
ICAO: KOQU
IATA: OQU
Category: Medium
Scheduled Services: No

Elevation: 18 ft
TransAlt. 18000 ft.

Airport Communications:
PROVIDENCE APP/DEP:135.4
CTAF:126.35
GND:134.5
ANG OPS:38.33
ARNG OPS:38.95
BRIDGEPORT RDO:122.3
TWR:126.35
UNICOM:122.95

KOQU Zoom In..

Runways:

(A) RW 05 length 4000 ft width 75 ft
---- / hdg 49

(B) RW 16 length 7504 ft width 150 ft
ILS 109.50 / hdg 160

(C) RW 23 length 4000 ft width 75 ft
---- / hdg 229

(D) RW 34 length 7504 ft width 150 ft
---- / hdg 340

Location; KOQU
Day. 21 / Time. 22.50 Zulu
* Altimeter: 30.15
* Temperature: 04° c. 39.2°f.
* Wind from: 210° Speed 06 kn.
Dewpoint: -01° c.
Visibility: 15 Statute Miles.

KOQU 212250Z 21006KT 15SM BNK250 04/M01 A3015 RMK LAST


Wind From 210°
Speed 06 kn.

jpsM music video
CHECK IT OUT

jpsM - It Moves..

 
jpsmedia.com for Web Design  worldairports.se 2018   terms of use